Kohat Weather



Kohat's Current Weather

Temprature 39.04o few clouds

few clouds

Rain: 0 %

Min Temprature39.04o
Max Temprature39.04o
Humidity23
Wind Speed1.99 m/h
Sun Rise05:20:39
Sun Set19:20:26
Current Time: 24-Jul-2021 15:50:43
Lat/Lon: 33.582, 71.4493




Kohat's Geo Location



Kohat's Weather Forecast

Time Overall Temp Min Temp Max Temp Humidity Wind Speed Rain
24-Jul-2021 (Sat)
17:00:00 clear sky 39.040 39.040 40.000 22 2.71 m/h 0 %
20:00:00 clear sky 38.480 37.360 38.480 25 2.19 m/h 0 %
23:00:00 clear sky 36.710 35.540 36.710 30 2.05 m/h 0 %
25-Jul-2021 (Sun)
02:00:00 clear sky 34.030 34.030 34.030 39 1.26 m/h 0 %
05:00:00 clear sky 32.870 32.870 32.870 41 1.14 m/h 0 %
08:00:00 broken clouds 35.590 35.590 35.590 31 1.09 m/h 0 %
11:00:00 broken clouds 38.480 38.480 38.480 27 1.06 m/h 0 %
14:00:00 clear sky 41.070 41.070 41.070 23 2.45 m/h 0 %
17:00:00 clear sky 41.520 41.520 41.520 22 4.28 m/h 0 %
20:00:00 clear sky 38.650 38.650 38.650 29 3.07 m/h 0 %
23:00:00 clear sky 37.220 37.220 37.220 35 1.17 m/h 0 %
26-Jul-2021 (Mon)
02:00:00 few clouds 35.840 35.840 35.840 38 0.53 m/h 0 %
05:00:00 clear sky 32.990 32.990 32.990 52 2.55 m/h 0 %
08:00:00 scattered clouds 33.490 33.490 33.490 56 2.54 m/h 0 %
11:00:00 few clouds 36.730 36.730 36.730 44 1.65 m/h 0 %
14:00:00 clear sky 39.850 39.850 39.850 33 2.26 m/h 0 %
17:00:00 clear sky 40.930 40.930 40.930 30 2.34 m/h 0 %
20:00:00 scattered clouds 39.250 39.250 39.250 34 2.92 m/h 0 %
23:00:00 few clouds 37.100 37.100 37.100 41 3.86 m/h 0 %
27-Jul-2021 (Tue)
02:00:00 few clouds 33.500 33.500 33.500 57 3.71 m/h 0 %
05:00:00 scattered clouds 31.980 31.980 31.980 64 2.46 m/h 0 %
08:00:00 clear sky 32.130 32.130 32.130 65 2.69 m/h 0 %
11:00:00 scattered clouds 35.120 35.120 35.120 53 2.28 m/h 0 %
14:00:00 broken clouds 38.370 38.370 38.370 41 2.32 m/h 0 %
17:00:00 scattered clouds 40.270 40.270 40.270 34 5.41 m/h 0 %
20:00:00 broken clouds 38.020 38.020 38.020 38 5.95 m/h 0 %
23:00:00 broken clouds 33.700 33.700 33.700 55 7.92 m/h 0 %
28-Jul-2021 (Wed)
02:00:00 broken clouds 32.440 32.440 32.440 58 3.06 m/h 0 %
05:00:00 broken clouds 30.920 30.920 30.920 63 2.99 m/h 0 %
08:00:00 light rain 29.250 29.250 29.250 72 2.59 m/h 13 %
11:00:00 light rain 31.470 31.470 31.470 63 2.06 m/h 32 %
14:00:00 light rain 33.320 33.320 33.320 55 2.64 m/h 166 %
17:00:00 light rain 30.800 30.800 30.800 66 4.44 m/h 299 %
20:00:00 moderate rain 28.060 28.060 28.060 80 4.38 m/h 320 %
23:00:00 light rain 26.830 26.830 26.830 85 2.75 m/h 116 %
29-Jul-2021 (Thu)
02:00:00 light rain 26.540 26.540 26.540 85 1.74 m/h 104 %
05:00:00 light rain 25.900 25.900 25.900 88 1.32 m/h 103 %
08:00:00 light rain 26.340 26.340 26.340 86 1.74 m/h 72 %
11:00:00 light rain 27.200 27.200 27.200 82 1.15 m/h 39 %
14:00:00 broken clouds 30.880 30.880 30.880 65 1.39 m/h 0 %

Famous Cities (60)